sensor_id;sensor_type;location;lat;lon;timestamp;pressure;altitude;pressure_sealevel;temperature;humidity
54554;BME280;40450;55.848;-3.572;2023-09-12T00:01:15;99278.47;;;15.68;65.70
54554;BME280;40450;55.848;-3.572;2023-09-12T00:03:51;99284.57;;;16.07;65.27
54554;BME280;40450;55.848;-3.572;2023-09-12T00:06:16;99282.21;;;16.06;64.26
54554;BME280;40450;55.848;-3.572;2023-09-12T00:08:47;99279.62;;;15.70;65.53
54554;BME280;40450;55.848;-3.572;2023-09-12T00:11:17;99273.81;;;15.16;67.55
54554;BME280;40450;55.848;-3.572;2023-09-12T00:13:47;99271.83;;;15.38;67.21
54554;BME280;40450;55.848;-3.572;2023-09-12T00:16:18;99277.76;;;15.88;66.53
54554;BME280;40450;55.848;-3.572;2023-09-12T00:18:48;99278.89;;;16.29;65.28
54554;BME280;40450;55.848;-3.572;2023-09-12T00:21:18;99279.31;;;16.51;65.02
54554;BME280;40450;55.848;-3.572;2023-09-12T00:23:49;99274.30;;;16.37;64.10
54554;BME280;40450;55.848;-3.572;2023-09-12T00:26:19;99274.88;;;16.34;64.01
54554;BME280;40450;55.848;-3.572;2023-09-12T00:28:49;99275.64;;;15.84;65.36
54554;BME280;40450;55.848;-3.572;2023-09-12T00:31:20;99278.78;;;15.50;66.64
54554;BME280;40450;55.848;-3.572;2023-09-12T00:33:50;99282.56;;;15.57;66.50
54554;BME280;40450;55.848;-3.572;2023-09-12T00:36:20;99286.18;;;15.58;66.56
54554;BME280;40450;55.848;-3.572;2023-09-12T00:38:51;99284.70;;;15.22;67.86
54554;BME280;40450;55.848;-3.572;2023-09-12T00:41:21;99291.28;;;14.44;70.46
54554;BME280;40450;55.848;-3.572;2023-09-12T00:43:51;99291.74;;;14.59;70.09
54554;BME280;40450;55.848;-3.572;2023-09-12T00:46:22;99293.50;;;14.78;69.69
54554;BME280;40450;55.848;-3.572;2023-09-12T00:48:53;99296.34;;;15.17;69.04
54554;BME280;40450;55.848;-3.572;2023-09-12T00:51:24;99296.75;;;15.06;68.54
54554;BME280;40450;55.848;-3.572;2023-09-12T00:53:53;99292.96;;;14.98;68.66
54554;BME280;40450;55.848;-3.572;2023-09-12T00:56:23;99292.01;;;14.88;68.79
54554;BME280;40450;55.848;-3.572;2023-09-12T00:58:54;99294.34;;;15.11;68.41
54554;BME280;40450;55.848;-3.572;2023-09-12T01:01:24;99298.41;;;14.99;68.33
54554;BME280;40450;55.848;-3.572;2023-09-12T01:03:59;99301.27;;;15.00;68.45
54554;BME280;40450;55.848;-3.572;2023-09-12T01:06:25;99298.24;;;14.64;69.37
54554;BME280;40450;55.848;-3.572;2023-09-12T01:08:55;99300.08;;;14.76;68.89
54554;BME280;40450;55.848;-3.572;2023-09-12T01:11:26;99303.17;;;14.81;68.77
54554;BME280;40450;55.848;-3.572;2023-09-12T01:13:56;99307.91;;;14.55;68.68
54554;BME280;40450;55.848;-3.572;2023-09-12T01:16:26;99305.98;;;14.95;67.52
54554;BME280;40450;55.848;-3.572;2023-09-12T01:18:56;99308.65;;;15.30;67.46
54554;BME280;40450;55.848;-3.572;2023-09-12T01:24:09;99310.71;;;15.42;64.82
54554;BME280;40450;55.848;-3.572;2023-09-12T01:26:42;99310.55;;;14.89;66.59
54554;BME280;40450;55.848;-3.572;2023-09-12T01:28:58;99315.36;;;15.01;66.44
54554;BME280;40450;55.848;-3.572;2023-09-12T01:31:29;99317.25;;;14.90;66.86
54554;BME280;40450;55.848;-3.572;2023-09-12T01:34:08;99322.58;;;15.08;66.70
54554;BME280;40450;55.848;-3.572;2023-09-12T01:36:29;99324.93;;;15.24;65.63
54554;BME280;40450;55.848;-3.572;2023-09-12T01:38:59;99318.24;;;16.02;65.61
54554;BME280;40450;55.848;-3.572;2023-09-12T01:41:32;99315.11;;;16.41;63.01
54554;BME280;40450;55.848;-3.572;2023-09-12T01:44:02;99314.33;;;16.36;60.73
54554;BME280;40450;55.848;-3.572;2023-09-12T01:46:31;99316.78;;;16.33;60.86
54554;BME280;40450;55.848;-3.572;2023-09-12T01:49:02;99317.47;;;16.54;61.49
54554;BME280;40450;55.848;-3.572;2023-09-12T01:51:31;99317.24;;;16.63;59.59
54554;BME280;40450;55.848;-3.572;2023-09-12T01:54:02;99318.60;;;16.40;60.16
54554;BME280;40450;55.848;-3.572;2023-09-12T01:56:32;99324.40;;;16.23;60.53
54554;BME280;40450;55.848;-3.572;2023-09-12T01:59:03;99325.04;;;15.81;62.39
54554;BME280;40450;55.848;-3.572;2023-09-12T02:01:32;99326.79;;;15.75;62.76
54554;BME280;40450;55.848;-3.572;2023-09-12T02:04:03;99327.46;;;15.72;63.36
54554;BME280;40450;55.848;-3.572;2023-09-12T02:06:33;99332.23;;;16.21;63.25
54554;BME280;40450;55.848;-3.572;2023-09-12T02:09:04;99334.57;;;16.55;60.59
54554;BME280;40450;55.848;-3.572;2023-09-12T02:11:34;99334.75;;;16.01;61.05
54554;BME280;40450;55.848;-3.572;2023-09-12T02:14:04;99338.47;;;15.70;62.97
54554;BME280;40450;55.848;-3.572;2023-09-12T02:16:37;99336.65;;;15.53;63.85
54554;BME280;40450;55.848;-3.572;2023-09-12T02:19:05;99336.53;;;15.75;64.15
54554;BME280;40450;55.848;-3.572;2023-09-12T02:21:35;99340.40;;;16.25;63.35
54554;BME280;40450;55.848;-3.572;2023-09-12T02:24:06;99339.94;;;16.50;62.57
54554;BME280;40450;55.848;-3.572;2023-09-12T02:26:36;99338.98;;;15.84;62.67
54554;BME280;40450;55.848;-3.572;2023-09-12T02:29:06;99338.60;;;15.44;63.94
54554;BME280;40450;55.848;-3.572;2023-09-12T02:31:37;99342.41;;;15.55;63.87
54554;BME280;40450;55.848;-3.572;2023-09-12T02:34:07;99340.39;;;15.76;63.68
54554;BME280;40450;55.848;-3.572;2023-09-12T02:36:37;99340.14;;;15.98;62.84
54554;BME280;40450;55.848;-3.572;2023-09-12T02:39:08;99342.65;;;15.82;62.18
54554;BME280;40450;55.848;-3.572;2023-09-12T02:41:38;99349.08;;;15.08;63.94
54554;BME280;40450;55.848;-3.572;2023-09-12T02:44:08;99349.02;;;14.73;65.54
54554;BME280;40450;55.848;-3.572;2023-09-12T02:46:39;99351.41;;;14.82;65.37
54554;BME280;40450;55.848;-3.572;2023-09-12T02:49:11;99351.40;;;14.89;65.37
54554;BME280;40450;55.848;-3.572;2023-09-12T02:51:39;99352.71;;;15.11;65.43
54554;BME280;40450;55.848;-3.572;2023-09-12T02:54:15;99354.60;;;15.46;64.72
54554;BME280;40450;55.848;-3.572;2023-09-12T02:56:40;99360.21;;;15.26;64.00
54554;BME280;40450;55.848;-3.572;2023-09-12T02:59:10;99366.26;;;14.49;66.62
54554;BME280;40450;55.848;-3.572;2023-09-12T03:01:41;99366.66;;;14.34;67.29
54554;BME280;40450;55.848;-3.572;2023-09-12T03:04:11;99369.25;;;14.54;67.18
54554;BME280;40450;55.848;-3.572;2023-09-12T03:06:41;99371.72;;;14.16;68.01
54554;BME280;40450;55.848;-3.572;2023-09-12T03:09:13;99373.70;;;13.84;69.24
54554;BME280;40450;55.848;-3.572;2023-09-12T03:11:42;99376.23;;;14.04;68.58
54554;BME280;40450;55.848;-3.572;2023-09-12T03:14:12;99373.79;;;14.28;68.36
54554;BME280;40450;55.848;-3.572;2023-09-12T03:16:43;99371.09;;;14.60;67.74
54554;BME280;40450;55.848;-3.572;2023-09-12T03:19:13;99364.16;;;14.58;67.39
54554;BME280;40450;55.848;-3.572;2023-09-12T03:21:43;99362.16;;;14.56;67.28
54554;BME280;40450;55.848;-3.572;2023-09-12T03:24:14;99364.69;;;14.60;67.14
54554;BME280;40450;55.848;-3.572;2023-09-12T03:26:44;99367.02;;;14.22;67.06
54554;BME280;40450;55.848;-3.572;2023-09-12T03:29:14;99368.36;;;13.38;69.38
54554;BME280;40450;55.848;-3.572;2023-09-12T03:31:45;99367.44;;;13.54;68.81
54554;BME280;40450;55.848;-3.572;2023-09-12T03:34:15;99366.84;;;13.59;68.32
54554;BME280;40450;55.848;-3.572;2023-09-12T03:36:45;99367.74;;;13.59;69.15
54554;BME280;40450;55.848;-3.572;2023-09-12T03:39:16;99374.41;;;14.00;68.73
54554;BME280;40450;55.848;-3.572;2023-09-12T03:41:46;99377.04;;;14.06;68.01
54554;BME280;40450;55.848;-3.572;2023-09-12T03:44:16;99377.25;;;14.54;67.41
54554;BME280;40450;55.848;-3.572;2023-09-12T03:46:47;99375.89;;;14.39;66.18
54554;BME280;40450;55.848;-3.572;2023-09-12T03:49:17;99372.41;;;14.69;65.98
54554;BME280;40450;55.848;-3.572;2023-09-12T03:51:47;99373.27;;;14.86;65.85
54554;BME280;40450;55.848;-3.572;2023-09-12T03:54:18;99376.57;;;14.94;64.76
54554;BME280;40450;55.848;-3.572;2023-09-12T03:56:48;99374.64;;;15.21;65.49
54554;BME280;40450;55.848;-3.572;2023-09-12T03:59:18;99378.82;;;15.12;63.73
54554;BME280;40450;55.848;-3.572;2023-09-12T04:01:49;99382.84;;;15.03;64.54
54554;BME280;40450;55.848;-3.572;2023-09-12T04:04:19;99382.52;;;14.70;64.98
54554;BME280;40450;55.848;-3.572;2023-09-12T04:06:49;99383.19;;;14.38;65.96
54554;BME280;40450;55.848;-3.572;2023-09-12T04:09:20;99384.90;;;14.48;65.26
54554;BME280;40450;55.848;-3.572;2023-09-12T04:11:50;99386.35;;;14.75;65.18
54554;BME280;40450;55.848;-3.572;2023-09-12T04:14:21;99390.36;;;15.01;64.94
54554;BME280;40450;55.848;-3.572;2023-09-12T04:16:51;99385.58;;;15.32;64.57
54554;BME280;40450;55.848;-3.572;2023-09-12T04:19:21;99388.79;;;15.05;64.04
54554;BME280;40450;55.848;-3.572;2023-09-12T04:21:52;99384.51;;;14.78;64.63
54554;BME280;40450;55.848;-3.572;2023-09-12T04:24:22;99385.11;;;14.79;64.98
54554;BME280;40450;55.848;-3.572;2023-09-12T04:26:54;99392.31;;;15.04;64.37
54554;BME280;40450;55.848;-3.572;2023-09-12T04:29:23;99392.49;;;14.76;64.02
54554;BME280;40450;55.848;-3.572;2023-09-12T04:31:53;99395.91;;;14.25;65.55
54554;BME280;40450;55.848;-3.572;2023-09-12T04:34:23;99397.04;;;14.38;65.44
54554;BME280;40450;55.848;-3.572;2023-09-12T04:36:54;99397.49;;;14.67;65.07
54554;BME280;40450;55.848;-3.572;2023-09-12T04:39:24;99400.03;;;14.98;64.74
54554;BME280;40450;55.848;-3.572;2023-09-12T04:41:55;99397.88;;;15.25;64.22
54554;BME280;40450;55.848;-3.572;2023-09-12T04:44:25;99400.17;;;14.96;63.24
54554;BME280;40450;55.848;-3.572;2023-09-12T04:46:55;99401.95;;;14.65;64.44
54554;BME280;40450;55.848;-3.572;2023-09-12T04:49:26;99407.82;;;14.19;65.46
54554;BME280;40450;55.848;-3.572;2023-09-12T04:51:56;99406.38;;;13.74;67.19
54554;BME280;40450;55.848;-3.572;2023-09-12T04:54:26;99410.53;;;14.09;66.63
54554;BME280;40450;55.848;-3.572;2023-09-12T04:56:57;99412.70;;;14.26;65.66
54554;BME280;40450;55.848;-3.572;2023-09-12T04:59:27;99413.72;;;13.90;66.30
54554;BME280;40450;55.848;-3.572;2023-09-12T05:01:58;99418.25;;;14.18;65.70
54554;BME280;40450;55.848;-3.572;2023-09-12T05:04:28;99422.01;;;14.23;65.52
54554;BME280;40450;55.848;-3.572;2023-09-12T05:06:58;99432.44;;;13.53;67.74
54554;BME280;40450;55.848;-3.572;2023-09-12T05:09:28;99432.32;;;14.02;67.00
54554;BME280;40450;55.848;-3.572;2023-09-12T05:11:59;99432.97;;;14.04;66.28
54554;BME280;40450;55.848;-3.572;2023-09-12T05:14:29;99434.48;;;13.96;66.61
54554;BME280;40450;55.848;-3.572;2023-09-12T05:17:00;99442.33;;;13.77;67.43
54554;BME280;40450;55.848;-3.572;2023-09-12T05:19:30;99440.60;;;13.63;67.92
54554;BME280;40450;55.848;-3.572;2023-09-12T05:22:00;99443.76;;;13.60;68.10
54554;BME280;40450;55.848;-3.572;2023-09-12T05:24:31;99446.35;;;13.75;67.60
54554;BME280;40450;55.848;-3.572;2023-09-12T05:27:01;99450.49;;;13.15;69.16
54554;BME280;40450;55.848;-3.572;2023-09-12T05:29:31;99451.81;;;13.41;68.09
54554;BME280;40450;55.848;-3.572;2023-09-12T05:34:32;99455.83;;;13.42;68.20
54554;BME280;40450;55.848;-3.572;2023-09-12T05:37:03;99457.47;;;13.09;68.59
54554;BME280;40450;55.848;-3.572;2023-09-12T05:39:33;99457.56;;;13.09;69.19
54554;BME280;40450;55.848;-3.572;2023-09-12T05:42:03;99456.39;;;13.60;68.45
54554;BME280;40450;55.848;-3.572;2023-09-12T05:44:41;99459.24;;;13.81;68.12
54554;BME280;40450;55.848;-3.572;2023-09-12T05:47:04;99462.37;;;13.86;67.14
54554;BME280;40450;55.848;-3.572;2023-09-12T05:49:34;99462.30;;;13.99;67.03
54554;BME280;40450;55.848;-3.572;2023-09-12T05:52:05;99462.20;;;14.13;66.50
54554;BME280;40450;55.848;-3.572;2023-09-12T05:54:35;99472.65;;;13.81;67.12
54554;BME280;40450;55.848;-3.572;2023-09-12T05:57:05;99466.99;;;14.14;66.42
54554;BME280;40450;55.848;-3.572;2023-09-12T05:59:37;99474.12;;;14.01;66.38
54554;BME280;40450;55.848;-3.572;2023-09-12T06:02:06;99482.67;;;13.32;68.61
54554;BME280;40450;55.848;-3.572;2023-09-12T06:04:36;99486.10;;;13.32;68.81
54554;BME280;40450;55.848;-3.572;2023-09-12T06:07:12;99487.36;;;13.23;69.23
54554;BME280;40450;55.848;-3.572;2023-09-12T06:09:37;99488.42;;;13.24;69.66
54554;BME280;40450;55.848;-3.572;2023-09-12T06:12:08;99495.85;;;13.28;69.63
54554;BME280;40450;55.848;-3.572;2023-09-12T06:14:38;99496.79;;;13.56;68.97
54554;BME280;40450;55.848;-3.572;2023-09-12T06:17:08;99494.22;;;13.84;69.09
54554;BME280;40450;55.848;-3.572;2023-09-12T06:19:39;99495.12;;;14.06;68.10
54554;BME280;40450;55.848;-3.572;2023-09-12T06:22:09;99495.64;;;13.84;68.38
54554;BME280;40450;55.848;-3.572;2023-09-12T06:24:39;99496.14;;;14.12;68.09
54554;BME280;40450;55.848;-3.572;2023-09-12T06:27:10;99497.06;;;14.42;68.15
54554;BME280;40450;55.848;-3.572;2023-09-12T06:29:40;99509.41;;;13.93;68.23
54554;BME280;40450;55.848;-3.572;2023-09-12T06:32:11;99511.44;;;14.03;68.47
54554;BME280;40450;55.848;-3.572;2023-09-12T06:34:41;99515.15;;;13.86;69.14
54554;BME280;40450;55.848;-3.572;2023-09-12T06:37:12;99519.37;;;14.00;69.12
54554;BME280;40450;55.848;-3.572;2023-09-12T06:39:42;99521.84;;;13.92;68.82
54554;BME280;40450;55.848;-3.572;2023-09-12T06:42:12;99520.88;;;14.19;68.57
54554;BME280;40450;55.848;-3.572;2023-09-12T06:44:43;99519.68;;;14.46;68.01
54554;BME280;40450;55.848;-3.572;2023-09-12T06:47:13;99522.05;;;14.73;67.93
54554;BME280;40450;55.848;-3.572;2023-09-12T06:49:43;99523.52;;;14.91;67.41
54554;BME280;40450;55.848;-3.572;2023-09-12T06:52:19;99524.54;;;15.09;67.04
54554;BME280;40450;55.848;-3.572;2023-09-12T06:54:44;99527.37;;;15.31;66.74
54554;BME280;40450;55.848;-3.572;2023-09-12T06:57:24;99529.64;;;15.34;66.97
54554;BME280;40450;55.848;-3.572;2023-09-12T06:59:45;99528.86;;;15.42;65.92
54554;BME280;40450;55.848;-3.572;2023-09-12T07:02:15;99529.47;;;15.43;66.32
54554;BME280;40450;55.848;-3.572;2023-09-12T07:04:45;99532.44;;;15.43;66.13
54554;BME280;40450;55.848;-3.572;2023-09-12T07:07:16;99535.50;;;15.57;66.44
54554;BME280;40450;55.848;-3.572;2023-09-12T07:09:46;99534.58;;;15.76;66.49
54554;BME280;40450;55.848;-3.572;2023-09-12T07:12:17;99541.53;;;16.01;66.19
54554;BME280;40450;55.848;-3.572;2023-09-12T07:14:47;99542.63;;;16.15;65.67
54554;BME280;40450;55.848;-3.572;2023-09-12T07:17:18;99545.39;;;16.19;65.52
54554;BME280;40450;55.848;-3.572;2023-09-12T07:19:48;99547.88;;;16.00;65.22
54554;BME280;40450;55.848;-3.572;2023-09-12T07:22:18;99549.24;;;15.54;66.28
54554;BME280;40450;55.848;-3.572;2023-09-12T07:24:48;99550.62;;;15.24;67.40
54554;BME280;40450;55.848;-3.572;2023-09-12T07:27:18;99548.73;;;14.82;69.09
54554;BME280;40450;55.848;-3.572;2023-09-12T07:29:48;99547.61;;;15.40;68.18
54554;BME280;40450;55.848;-3.572;2023-09-12T07:32:19;99549.50;;;15.76;67.44
54554;BME280;40450;55.848;-3.572;2023-09-12T07:34:49;99553.69;;;15.71;66.56
54554;BME280;40450;55.848;-3.572;2023-09-12T07:37:34;99556.60;;;16.10;65.92
54554;BME280;40450;55.848;-3.572;2023-09-12T07:39:50;99558.40;;;15.52;66.08
54554;BME280;40450;55.848;-3.572;2023-09-12T07:42:22;99561.04;;;16.07;65.69
54554;BME280;40450;55.848;-3.572;2023-09-12T07:44:50;99559.43;;;16.26;65.62
54554;BME280;40450;55.848;-3.572;2023-09-12T07:47:21;99563.90;;;16.54;65.27
54554;BME280;40450;55.848;-3.572;2023-09-12T07:49:53;99562.68;;;16.82;64.32
54554;BME280;40450;55.848;-3.572;2023-09-12T07:52:22;99560.23;;;16.98;63.77
54554;BME280;40450;55.848;-3.572;2023-09-12T07:54:52;99558.85;;;16.24;63.13
54554;BME280;40450;55.848;-3.572;2023-09-12T07:57:22;99560.71;;;16.70;62.82
54554;BME280;40450;55.848;-3.572;2023-09-12T07:59:54;99566.80;;;16.59;61.08
54554;BME280;40450;55.848;-3.572;2023-09-12T08:02:28;99567.60;;;16.99;62.50
54554;BME280;40450;55.848;-3.572;2023-09-12T08:04:53;99565.90;;;16.87;61.74
54554;BME280;40450;55.848;-3.572;2023-09-12T08:07:23;99570.32;;;17.06;62.33
54554;BME280;40450;55.848;-3.572;2023-09-12T08:09:55;99574.44;;;16.36;60.89
54554;BME280;40450;55.848;-3.572;2023-09-12T08:12:29;99577.06;;;16.93;60.66
54554;BME280;40450;55.848;-3.572;2023-09-12T08:14:55;99580.20;;;16.73;61.01
54554;BME280;40450;55.848;-3.572;2023-09-12T08:17:25;99580.32;;;16.97;61.89
54554;BME280;40450;55.848;-3.572;2023-09-12T08:19:55;99584.15;;;17.02;61.63
54554;BME280;40450;55.848;-3.572;2023-09-12T08:22:25;99590.22;;;17.03;60.33
54554;BME280;40450;55.848;-3.572;2023-09-12T08:24:56;99593.15;;;16.93;60.46
54554;BME280;40450;55.848;-3.572;2023-09-12T08:27:26;99591.47;;;17.13;60.42
54554;BME280;40450;55.848;-3.572;2023-09-12T08:29:56;99592.16;;;16.58;61.30
54554;BME280;40450;55.848;-3.572;2023-09-12T08:32:27;99590.80;;;16.97;61.20
54554;BME280;40450;55.848;-3.572;2023-09-12T08:34:57;99600.35;;;16.42;61.89
54554;BME280;40450;55.848;-3.572;2023-09-12T08:37:28;99606.05;;;15.45;64.88
54554;BME280;40450;55.848;-3.572;2023-09-12T08:39:58;99613.24;;;14.31;66.35
54554;BME280;40450;55.848;-3.572;2023-09-12T08:42:29;99607.55;;;16.15;63.89
54554;BME280;40450;55.848;-3.572;2023-09-12T08:44:59;99608.50;;;15.56;65.16
54554;BME280;40450;55.848;-3.572;2023-09-12T08:47:30;99606.48;;;15.46;63.80
54554;BME280;40450;55.848;-3.572;2023-09-12T08:50:00;99615.67;;;13.88;69.70
54554;BME280;40450;55.848;-3.572;2023-09-12T08:52:30;99612.86;;;15.66;66.14
54554;BME280;40450;55.848;-3.572;2023-09-12T08:55:00;99616.72;;;14.71;67.32
54554;BME280;40450;55.848;-3.572;2023-09-12T08:57:35;99622.37;;;14.41;67.22
54554;BME280;40450;55.848;-3.572;2023-09-12T09:00:01;99627.17;;;14.04;69.92
54554;BME280;40450;55.848;-3.572;2023-09-12T09:02:32;99622.62;;;14.66;66.70
54554;BME280;40450;55.848;-3.572;2023-09-12T09:05:02;99622.71;;;15.46;64.91
54554;BME280;40450;55.848;-3.572;2023-09-12T09:07:32;99627.10;;;15.34;63.61
54554;BME280;40450;55.848;-3.572;2023-09-12T09:10:04;99631.26;;;15.19;64.80
54554;BME280;40450;55.848;-3.572;2023-09-12T09:12:33;99639.30;;;15.04;65.88
54554;BME280;40450;55.848;-3.572;2023-09-12T09:17:33;99641.35;;;16.83;63.40
54554;BME280;40450;55.848;-3.572;2023-09-12T09:20:22;99642.38;;;16.80;62.87
54554;BME280;40450;55.848;-3.572;2023-09-12T09:22:36;99646.96;;;16.57;62.85
54554;BME280;40450;55.848;-3.572;2023-09-12T09:25:12;99645.17;;;16.23;62.48
54554;BME280;40450;55.848;-3.572;2023-09-12T09:27:41;99644.61;;;16.14;63.13
54554;BME280;40450;55.848;-3.572;2023-09-12T09:30:06;99638.36;;;16.68;62.82
54554;BME280;40450;55.848;-3.572;2023-09-12T09:32:36;99641.22;;;15.95;64.03
54554;BME280;40450;55.848;-3.572;2023-09-12T09:35:08;99648.40;;;13.05;73.96
54554;BME280;40450;55.848;-3.572;2023-09-12T09:37:38;99652.57;;;11.38;77.99
54554;BME280;40450;55.848;-3.572;2023-09-12T09:40:08;99648.66;;;11.69;77.60
54554;BME280;40450;55.848;-3.572;2023-09-12T09:42:42;99642.00;;;13.42;74.51
54554;BME280;40450;55.848;-3.572;2023-09-12T09:45:12;99647.31;;;11.74;77.72
54554;BME280;40450;55.848;-3.572;2023-09-12T09:47:38;99657.68;;;9.74;82.99
54554;BME280;40450;55.848;-3.572;2023-09-12T09:50:14;99655.56;;;10.28;81.02
54554;BME280;40450;55.848;-3.572;2023-09-12T09:52:39;99657.64;;;10.45;81.09
54554;BME280;40450;55.848;-3.572;2023-09-12T09:55:14;99660.65;;;10.53;81.54
54554;BME280;40450;55.848;-3.572;2023-09-12T09:57:38;99662.48;;;10.54;79.66
54554;BME280;40450;55.848;-3.572;2023-09-12T10:00:09;99659.64;;;10.87;77.52
54554;BME280;40450;55.848;-3.572;2023-09-12T10:02:39;99668.44;;;9.90;80.09
54554;BME280;40450;55.848;-3.572;2023-09-12T10:05:10;99664.86;;;9.51;81.99
54554;BME280;40450;55.848;-3.572;2023-09-12T10:07:40;99667.84;;;9.64;81.59
54554;BME280;40450;55.848;-3.572;2023-09-12T10:10:10;99665.95;;;8.86;82.46
54554;BME280;40450;55.848;-3.572;2023-09-12T10:15:12;99661.49;;;11.14;77.70
54554;BME280;40450;55.848;-3.572;2023-09-12T10:17:43;99662.42;;;11.28;75.60
54554;BME280;40450;55.848;-3.572;2023-09-12T10:20:20;99665.98;;;11.60;74.95
54554;BME280;40450;55.848;-3.572;2023-09-12T10:22:46;99662.67;;;11.08;76.54
54554;BME280;40450;55.848;-3.572;2023-09-12T10:25:14;99674.27;;;9.88;80.06
54554;BME280;40450;55.848;-3.572;2023-09-12T10:27:44;99663.57;;;11.13;74.90
54554;BME280;40450;55.848;-3.572;2023-09-12T10:30:15;99668.81;;;10.99;77.31
54554;BME280;40450;55.848;-3.572;2023-09-12T10:32:45;99679.65;;;10.18;77.62
54554;BME280;40450;55.848;-3.572;2023-09-12T10:35:15;99675.71;;;8.97;83.18
54554;BME280;40450;55.848;-3.572;2023-09-12T10:37:46;99676.46;;;9.50;82.05
54554;BME280;40450;55.848;-3.572;2023-09-12T10:40:15;99677.65;;;8.63;85.79
54554;BME280;40450;55.848;-3.572;2023-09-12T10:42:45;99683.55;;;8.15;87.05
54554;BME280;40450;55.848;-3.572;2023-09-12T10:45:15;99676.90;;;8.89;86.24
54554;BME280;40450;55.848;-3.572;2023-09-12T10:47:46;99677.64;;;9.54;83.54
54554;BME280;40450;55.848;-3.572;2023-09-12T10:50:15;99680.55;;;10.22;78.52
54554;BME280;40450;55.848;-3.572;2023-09-12T10:52:46;99678.89;;;10.41;79.61
54554;BME280;40450;55.848;-3.572;2023-09-12T10:55:17;99680.09;;;10.27;80.93
54554;BME280;40450;55.848;-3.572;2023-09-12T11:00:17;99672.17;;;11.60;72.59
54554;BME280;40450;55.848;-3.572;2023-09-12T11:02:48;99677.36;;;10.94;74.00
54554;BME280;40450;55.848;-3.572;2023-09-12T11:07:48;99683.56;;;14.34;69.09
54554;BME280;40450;55.848;-3.572;2023-09-12T11:10:19;99678.24;;;15.61;67.97
54554;BME280;40450;55.848;-3.572;2023-09-12T11:12:55;99687.68;;;14.54;66.90
54554;BME280;40450;55.848;-3.572;2023-09-12T11:15:22;99690.23;;;14.09;65.22
54554;BME280;40450;55.848;-3.572;2023-09-12T11:18:00;99690.19;;;14.78;62.30
54554;BME280;40450;55.848;-3.572;2023-09-12T11:20:20;99687.98;;;12.97;68.51
54554;BME280;40450;55.848;-3.572;2023-09-12T11:22:50;99689.88;;;13.01;68.16
54554;BME280;40450;55.848;-3.572;2023-09-12T11:25:22;99690.18;;;13.40;67.23
54554;BME280;40450;55.848;-3.572;2023-09-12T11:30:23;99688.84;;;13.59;66.75
54554;BME280;40450;55.848;-3.572;2023-09-12T11:32:54;99689.46;;;14.50;65.31
54554;BME280;40450;55.848;-3.572;2023-09-12T11:35:23;99691.01;;;15.19;60.44
54554;BME280;40450;55.848;-3.572;2023-09-12T11:37:54;99684.09;;;16.58;60.77
54554;BME280;40450;55.848;-3.572;2023-09-12T11:40:26;99679.37;;;16.96;58.93
54554;BME280;40450;55.848;-3.572;2023-09-12T11:42:53;99682.34;;;17.96;55.76
54554;BME280;40450;55.848;-3.572;2023-09-12T11:45:23;99683.85;;;17.04;56.81
54554;BME280;40450;55.848;-3.572;2023-09-12T11:47:55;99693.83;;;14.31;63.07
54554;BME280;40450;55.848;-3.572;2023-09-12T11:50:29;99693.12;;;13.78;65.41
54554;BME280;40450;55.848;-3.572;2023-09-12T11:53:00;99692.03;;;14.83;61.86
54554;BME280;40450;55.848;-3.572;2023-09-12T11:55:25;99684.23;;;16.11;59.26
54554;BME280;40450;55.848;-3.572;2023-09-12T11:57:56;99695.69;;;13.94;62.50
54554;BME280;40450;55.848;-3.572;2023-09-12T12:00:27;99699.10;;;14.65;59.45
54554;BME280;40450;55.848;-3.572;2023-09-12T12:02:56;99698.25;;;14.08;62.82
54554;BME280;40450;55.848;-3.572;2023-09-12T12:05:26;99695.60;;;16.20;60.24
54554;BME280;40450;55.848;-3.572;2023-09-12T12:07:59;99695.63;;;16.90;53.26
54554;BME280;40450;55.848;-3.572;2023-09-12T12:10:27;99690.58;;;17.72;52.71
54554;BME280;40450;55.848;-3.572;2023-09-12T12:12:58;99694.45;;;18.72;51.88
54554;BME280;40450;55.848;-3.572;2023-09-12T12:15:28;99693.87;;;16.41;52.58
54554;BME280;40450;55.848;-3.572;2023-09-12T12:17:57;99690.72;;;17.81;52.26
54554;BME280;40450;55.848;-3.572;2023-09-12T12:20:28;99693.26;;;16.09;53.79
54554;BME280;40450;55.848;-3.572;2023-09-12T12:22:59;99690.66;;;17.69;53.11
54554;BME280;40450;55.848;-3.572;2023-09-12T12:25:34;99693.57;;;18.40;52.68
54554;BME280;40450;55.848;-3.572;2023-09-12T12:28:00;99694.77;;;16.10;55.12
54554;BME280;40450;55.848;-3.572;2023-09-12T12:30:32;99697.46;;;16.42;54.91
54554;BME280;40450;55.848;-3.572;2023-09-12T12:33:02;99701.11;;;16.96;52.48
54554;BME280;40450;55.848;-3.572;2023-09-12T12:35:31;99703.65;;;16.23;54.50
54554;BME280;40450;55.848;-3.572;2023-09-12T12:38:01;99703.67;;;17.01;53.19
54554;BME280;40450;55.848;-3.572;2023-09-12T12:40:31;99713.52;;;13.75;58.50
54554;BME280;40450;55.848;-3.572;2023-09-12T12:43:02;99717.76;;;12.60;60.93
54554;BME280;40450;55.848;-3.572;2023-09-12T12:45:31;99720.81;;;12.60;63.06
54554;BME280;40450;55.848;-3.572;2023-09-12T12:48:02;99720.03;;;13.23;61.64
54554;BME280;40450;55.848;-3.572;2023-09-12T12:50:37;99721.19;;;14.23;60.20
54554;BME280;40450;55.848;-3.572;2023-09-12T12:53:04;99719.36;;;14.40;57.18
54554;BME280;40450;55.848;-3.572;2023-09-12T12:55:33;99716.19;;;16.42;55.04
54554;BME280;40450;55.848;-3.572;2023-09-12T12:58:04;99713.27;;;17.76;49.62
54554;BME280;40450;55.848;-3.572;2023-09-12T13:00:34;99714.26;;;18.43;50.66
54554;BME280;40450;55.848;-3.572;2023-09-12T13:03:05;99715.73;;;16.40;52.05
54554;BME280;40450;55.848;-3.572;2023-09-12T13:05:35;99713.85;;;18.40;46.29
54554;BME280;40450;55.848;-3.572;2023-09-12T13:08:09;99715.45;;;18.16;49.00
54554;BME280;40450;55.848;-3.572;2023-09-12T13:10:34;99719.06;;;18.66;44.45
54554;BME280;40450;55.848;-3.572;2023-09-12T13:13:04;99718.46;;;17.82;45.90
54554;BME280;40450;55.848;-3.572;2023-09-12T13:15:35;99721.86;;;16.55;50.34
54554;BME280;40450;55.848;-3.572;2023-09-12T13:18:06;99723.18;;;16.49;50.50
54554;BME280;40450;55.848;-3.572;2023-09-12T13:20:36;99723.25;;;16.92;52.09
54554;BME280;40450;55.848;-3.572;2023-09-12T13:23:07;99728.81;;;15.18;55.97